Time,TemperatureF,DewpointF,PressureIn,WindDirection,WindDirectionDegrees,WindSpeedMPH,WindSpeedGustMPH,Humidity,HourlyPrecipIn,Conditions,Clouds,dailyrainin,SolarRadiationWatts/m^2,SoftwareType,DateUTC
2013-08-05 01:00:00,50.0,47.0,-100.00,SSE,157,1.0,-999.0,90,-99.99,,,-99.99,0.000000,,2013-08-05 06:00:00,
2013-08-05 06:53:00,49.0,48.0,-100.00,SE,135,0.0,-999.0,96,-99.99,,,-99.99,3.480000,,2013-08-05 11:53:00,
2013-08-05 07:00:00,50.0,49.0,-100.00,SE,135,0.0,-999.0,96,-99.99,,,-99.99,31.320000,,2013-08-05 12:00:00,
2013-08-05 07:34:00,50.0,49.0,-100.00,SE,135,0.0,-999.0,96,-99.99,,,-99.99,31.320000,,2013-08-05 12:34:00,
2013-08-05 08:00:00,55.0,51.0,-100.00,SE,135,2.0,-999.0,86,-99.99,,,-99.99,96.279999,,2013-08-05 13:00:00,
2013-08-05 08:47:00,55.0,51.0,-100.00,SE,135,2.0,-999.0,86,-99.99,,,-99.99,96.279999,,2013-08-05 13:47:00,
2013-08-05 08:54:00,55.0,51.0,-100.00,SE,135,2.0,-999.0,86,-99.99,,,-99.99,96.279999,,2013-08-05 13:54:00,
2013-08-05 09:00:00,63.0,50.0,-100.00,SSE,157,5.0,-999.0,63,-99.99,,,-99.99,167.039993,,2013-08-05 14:00:00,
2013-08-05 09:54:00,63.0,50.0,-100.00,SSE,157,5.0,-999.0,63,-99.99,,,-99.99,167.039993,,2013-08-05 14:54:00,
2013-08-05 10:00:00,65.0,51.0,-100.00,SSE,157,6.0,-999.0,59,-99.99,,,-99.99,226.199997,,2013-08-05 15:00:00,
2013-08-05 10:50:00,65.0,51.0,-100.00,SSE,157,6.0,-999.0,59,-99.99,,,-99.99,226.199997,,2013-08-05 15:50:00,
2013-08-05 10:59:00,65.0,51.0,-100.00,SSE,157,6.0,-999.0,59,-99.99,,,-99.99,226.199997,,2013-08-05 15:59:00,
2013-08-05 11:00:00,65.0,55.0,-100.00,SSE,157,6.0,-999.0,69,-99.99,,,-99.99,270.279999,,2013-08-05 16:00:00,
2013-08-05 11:45:00,65.0,55.0,-100.00,SSE,157,6.0,-999.0,69,-99.99,,,-99.99,270.279999,,2013-08-05 16:45:00,
2013-08-05 12:00:00,64.0,56.0,-100.00,SSE,157,5.0,-999.0,75,0.05,,,-99.99,109.040001,,2013-08-05 17:00:00,
2013-08-05 12:38:00,64.0,56.0,-100.00,SSE,157,5.0,-999.0,75,0.05,,,-99.99,109.040001,,2013-08-05 17:38:00,
2013-08-05 12:50:00,64.0,56.0,-100.00,SSE,157,5.0,-999.0,75,0.05,,,-99.99,109.040001,,2013-08-05 17:50:00,
2013-08-05 13:00:00,62.0,59.0,-100.00,SE,135,3.0,-999.0,89,0.02,,,-99.99,105.559998,,2013-08-05 18:00:00,
2013-08-05 13:40:00,62.0,59.0,-100.00,SE,135,3.0,-999.0,89,0.02,,,-99.99,105.559998,,2013-08-05 18:40:00,
2013-08-05 13:54:00,62.0,59.0,-100.00,SE,135,3.0,-999.0,89,0.02,,,-99.99,105.559998,,2013-08-05 18:54:00,
2013-08-05 14:00:00,63.0,59.0,-100.00,SSE,157,4.0,-999.0,86,-99.99,,,-99.99,163.559998,,2013-08-05 19:00:00,
2013-08-05 14:53:00,63.0,59.0,-100.00,SSE,157,4.0,-999.0,86,-99.99,,,-99.99,163.559998,,2013-08-05 19:53:00,
2013-08-05 15:00:00,64.0,60.0,-100.00,SSE,157,6.0,-999.0,87,-99.99,,,-99.99,158.919998,,2013-08-05 20:00:00,
2013-08-05 15:40:00,64.0,60.0,-100.00,SSE,157,6.0,-999.0,87,-99.99,,,-99.99,158.919998,,2013-08-05 20:40:00,
2013-08-05 15:48:00,64.0,60.0,-100.00,SSE,157,6.0,-999.0,87,-99.99,,,-99.99,158.919998,,2013-08-05 20:48:00,
2013-08-05 16:00:00,65.0,61.0,-100.00,SSE,157,7.0,-999.0,85,-99.99,,,-99.99,214.600006,,2013-08-05 21:00:00,
2013-08-05 16:48:00,65.0,61.0,-100.00,SSE,157,7.0,-999.0,85,-99.99,,,-99.99,214.600006,,2013-08-05 21:48:00,
2013-08-05 16:54:00,65.0,61.0,-100.00,SSE,157,7.0,-999.0,85,-99.99,,,-99.99,214.600006,,2013-08-05 21:54:00,
2013-08-05 17:00:00,66.0,60.0,-100.00,SSE,157,8.0,-999.0,81,-99.99,,,-99.99,211.119995,,2013-08-05 22:00:00,
2013-08-05 17:53:00,66.0,60.0,-100.00,SSE,157,8.0,-999.0,81,-99.99,,,-99.99,211.119995,,2013-08-05 22:53:00,
2013-08-05 18:00:00,65.0,60.0,-100.00,SSE,157,7.0,-999.0,83,-99.99,,,-99.99,71.919998,,2013-08-05 23:00:00,
2013-08-05 18:33:00,65.0,60.0,-100.00,SSE,157,7.0,-999.0,83,-99.99,,,-99.99,71.919998,,2013-08-05 23:33:00,
2013-08-05 18:46:00,65.0,60.0,-100.00,SSE,157,7.0,-999.0,83,-99.99,,,-99.99,71.919998,,2013-08-05 23:46:00,
2013-08-05 19:00:00,64.0,59.0,-100.00,SSE,157,7.0,-999.0,82,-99.99,,,-99.99,33.639999,,2013-08-06 00:00:00,
2013-08-05 19:37:00,64.0,59.0,-100.00,SSE,157,7.0,-999.0,82,-99.99,,,-99.99,33.639999,,2013-08-06 00:37:00,
2013-08-05 19:47:00,64.0,59.0,-100.00,SSE,157,7.0,-999.0,82,-99.99,,,-99.99,33.639999,,2013-08-06 00:47:00,
2013-08-05 19:57:00,64.0,59.0,-100.00,SSE,157,7.0,-999.0,82,-99.99,,,-99.99,33.639999,,2013-08-06 00:57:00,
2013-08-05 20:00:00,64.0,59.0,-100.00,SSE,157,6.0,-999.0,84,-99.99,,,-99.99,15.080000,,2013-08-06 01:00:00,
2013-08-05 20:43:00,64.0,59.0,-100.00,SSE,157,6.0,-999.0,84,-99.99,,,-99.99,15.080000,,2013-08-06 01:43:00,
2013-08-05 20:53:00,64.0,59.0,-100.00,SSE,157,6.0,-999.0,84,-99.99,,,-99.99,15.080000,,2013-08-06 01:53:00,
2013-08-05 21:00:00,64.0,60.0,-100.00,SSE,157,6.0,-999.0,88,-99.99,,,-99.99,1.160000,,2013-08-06 02:00:00,
2013-08-05 21:33:00,64.0,60.0,-100.00,SSE,157,6.0,-999.0,88,-99.99,,,-99.99,1.160000,,2013-08-06 02:33:00,
2013-08-05 21:49:00,64.0,60.0,-100.00,SSE,157,6.0,-999.0,88,-99.99,,,-99.99,1.160000,,2013-08-06 02:49:00,
2013-08-05 22:00:00,64.0,61.0,-100.00,SSE,157,5.0,-999.0,91,-99.99,,,-99.99,0.000000,,2013-08-06 03:00:00,
2013-08-05 22:35:00,64.0,61.0,-100.00,SSE,157,5.0,-999.0,91,-99.99,,,-99.99,0.000000,,2013-08-06 03:35:00,
2013-08-05 22:45:00,64.0,61.0,-100.00,SSE,157,5.0,-999.0,91,-99.99,,,-99.99,0.000000,,2013-08-06 03:45:00,
2013-08-05 22:52:00,64.0,61.0,-100.00,SSE,157,5.0,-999.0,91,-99.99,,,-99.99,0.000000,,2013-08-06 03:52:00,
2013-08-05 23:00:00,64.0,62.0,-100.00,SE,135,3.0,-999.0,93,-99.99,,,-99.99,0.000000,,2013-08-06 04:00:00,
2013-08-05 23:33:00,64.0,62.0,-100.00,SE,135,3.0,-999.0,93,-99.99,,,-99.99,0.000000,,2013-08-06 04:33:00,
2013-08-05 23:44:00,64.0,62.0,-100.00,SE,135,3.0,-999.0,93,-99.99,,,-99.99,0.000000,,2013-08-06 04:44:00,
2013-08-05 23:54:00,64.0,62.0,-100.00,SE,135,3.0,-999.0,93,-99.99,,,-99.99,0.000000,,2013-08-06 04:54:00,